Time;durP1;ratioP1;P1;durP2;ratioP2;P2;SDS_P1;SDS_P2;PMS_P1;PMS_P2;Temp;Humidity;BMP_temperature;BMP_pressure;BME280_temperature;BME280_humidity;BME280_pressure;Samples;Min_cycle;Max_cycle;Signal;HPM_P1;HPM_P2
2023/07/25 00:00:34;;;;;;;10.32;3.15;;;11.90;99.90;;;;;;5131561;27;20038;-50
2023/07/25 00:03:00;;;;;;;9.38;3.97;;;11.70;99.90;;;;;;5130948;27;20043;-48
2023/07/25 00:05:26;;;;;;;12.73;3.60;;;10.10;99.90;;;;;;5132968;27;20087;-49
2023/07/25 00:07:52;;;;;;;11.65;3.33;;;11.80;99.90;;;;;;5111971;27;20501;-48
2023/07/25 00:10:18;;;;;;;14.60;3.50;;;11.90;99.90;;;;;;5130438;27;20695;-51
2023/07/25 00:12:44;;;;;;;12.90;4.00;;;11.80;99.90;;;;;;5132043;27;20601;-50
2023/07/25 00:15:11;;;;;;;8.98;3.22;;;11.90;99.90;;;;;;5131576;27;20447;-50
2023/07/25 00:17:36;;;;;;;10.75;3.15;;;12.00;99.90;;;;;;5130369;27;20276;-54
2023/07/25 00:20:03;;;;;;;10.70;3.00;;;11.80;99.90;;;;;;5129636;27;20035;-50
2023/07/25 00:22:28;;;;;;;11.00;4.13;;;11.90;99.90;;;;;;5131251;27;20051;-52
2023/07/25 00:24:54;;;;;;;9.40;3.00;;;12.00;99.90;;;;;;5110812;27;20364;-49
2023/07/25 00:27:20;;;;;;;15.00;3.60;;;12.00;99.90;;;;;;5131080;27;20042;-51
2023/07/25 00:29:47;;;;;;;8.50;3.03;;;12.00;99.90;;;;;;5130315;27;20034;-51
2023/07/25 00:32:13;;;;;;;11.60;3.60;;;11.90;99.90;;;;;;5113889;27;20054;-52
2023/07/25 00:34:38;;;;;;;8.15;3.10;;;11.90;99.90;;;;;;5132302;27;20047;-52
2023/07/25 00:37:05;;;;;;;15.98;3.60;;;12.10;99.90;;;;;;5131578;27;20039;-51
2023/07/25 00:39:30;;;;;;;8.43;3.15;;;11.90;99.90;;;;;;5131307;27;20043;-52
2023/07/25 00:41:56;;;;;;;11.48;3.45;;;12.00;99.90;;;;;;5112509;27;20119;-51
2023/07/25 00:44:22;;;;;;;11.88;3.35;;;12.10;99.90;;;;;;5132099;27;20123;-52
2023/07/25 00:46:48;;;;;;;10.52;3.00;;;12.10;99.90;;;;;;5134729;27;20042;-54
2023/07/25 00:49:13;;;;;;;8.65;3.28;;;12.10;99.90;;;;;;5117393;27;20546;-50
2023/07/25 00:51:39;;;;;;;11.85;3.17;;;12.10;99.90;;;;;;5135327;27;20043;-53
2023/07/25 00:54:06;;;;;;;10.20;2.85;;;12.30;99.90;;;;;;5135932;27;20118;-54
2023/07/25 00:56:31;;;;;;;10.35;3.22;;;12.30;99.90;;;;;;5135375;27;20444;-51
2023/07/25 00:58:57;;;;;;;15.00;3.60;;;12.30;99.90;;;;;;5135032;27;20043;-53
2023/07/25 01:01:24;;;;;;;10.25;2.80;;;12.10;99.90;;;;;;5135985;27;20068;-54
2023/07/25 01:03:52;;;;;;;12.73;3.28;;;12.20;99.90;;;;;;5136100;27;20042;-53
2023/07/25 01:06:18;;;;;;;13.32;3.35;;;12.20;99.90;;;;;;5134387;27;20046;-53
2023/07/25 01:08:48;;;;;;;17.17;4.13;;;12.10;99.90;;;;;;5133809;27;20846;-52
2023/07/25 01:11:14;;;;;;;11.45;2.97;;;12.20;99.90;;;;;;5134186;27;20038;-54
2023/07/25 01:13:40;;;;;;;13.95;3.42;;;12.20;99.90;;;;;;5134509;27;20039;-54
2023/07/25 01:16:07;;;;;;;11.80;3.17;;;12.30;99.90;;;;;;5133436;27;20047;-52
2023/07/25 01:18:33;;;;;;;14.50;3.42;;;12.30;99.90;;;;;;5133522;27;20081;-53
2023/07/25 01:20:59;;;;;;;9.27;2.85;;;12.30;99.90;;;;;;5133429;27;20121;-52
2023/07/25 01:23:27;;;;;;;24.42;3.70;;;12.30;99.90;;;;;;5134574;27;20459;-55
2023/07/25 01:25:53;;;;;;;18.23;4.32;;;12.30;99.90;;;;;;5133427;27;20379;-52
2023/07/25 01:28:19;;;;;;;13.15;3.53;;;12.50;99.90;;;;;;5133627;27;20035;-52
2023/07/25 01:30:44;;;;;;;12.20;3.15;;;12.30;99.90;;;;;;5133682;27;20088;-50
2023/07/25 01:33:10;;;;;;;8.63;2.90;;;12.50;99.90;;;;;;5134985;27;20039;-53
2023/07/25 01:35:36;;;;;;;11.70;2.90;;;12.60;99.90;;;;;;5134607;27;20042;-51
2023/07/25 01:38:02;;;;;;;9.35;2.35;;;12.60;99.90;;;;;;5132335;27;20047;-54
2023/07/25 01:40:27;;;;;;;12.15;3.08;;;12.50;99.90;;;;;;5116333;27;20045;-52
2023/07/25 01:42:53;;;;;;;11.73;3.10;;;11.60;99.90;;;;;;5115066;27;20035;-54
2023/07/25 01:45:19;;;;;;;11.60;3.10;;;12.60;99.90;;;;;;5133486;27;20121;-54
2023/07/25 01:47:45;;;;;;;12.15;4.22;;;12.60;99.90;;;;;;5133543;27;20034;-52
2023/07/25 01:50:10;;;;;;;8.02;2.78;;;12.70;99.90;;;;;;5133508;27;20499;-53
2023/07/25 01:52:36;;;;;;;9.45;3.05;;;12.60;99.90;;;;;;5134626;27;20051;-53
2023/07/25 01:55:02;;;;;;;10.13;3.00;;;12.70;99.90;;;;;;5133684;27;20693;-55
2023/07/25 01:57:28;;;;;;;9.18;2.63;;;12.70;99.90;;;;;;5133034;27;20053;-54
2023/07/25 01:59:53;;;;;;;10.88;3.05;;;12.80;99.90;;;;;;5134814;27;20042;-53
2023/07/25 02:02:19;;;;;;;8.52;2.42;;;12.90;99.90;;;;;;5135430;27;20134;-53
2023/07/25 02:04:46;;;;;;;11.13;3.00;;;12.60;99.90;;;;;;5133543;27;20053;-54
2023/07/25 02:07:12;;;;;;;16.02;3.50;;;12.70;99.90;;;;;;5133852;27;20050;-52
2023/07/25 02:09:37;;;;;;;9.65;2.78;;;12.80;99.90;;;;;;5134341;27;20039;-53
2023/07/25 02:12:05;;;;;;;12.55;2.65;;;12.70;99.90;;;;;;5134330;27;20046;-54
2023/07/25 02:14:31;;;;;;;12.95;3.35;;;12.70;99.90;;;;;;5133043;27;20042;-54
2023/07/25 02:16:56;;;;;;;11.88;2.45;;;12.80;99.90;;;;;;5114315;27;20046;-52
2023/07/25 02:19:22;;;;;;;14.07;2.97;;;12.60;99.90;;;;;;5133759;27;20054;-54
2023/07/25 02:21:48;;;;;;;9.70;2.80;;;12.70;99.90;;;;;;5133188;27;20367;-54
2023/07/25 02:24:13;;;;;;;11.20;3.30;;;12.80;99.90;;;;;;5132774;27;20050;-55
2023/07/25 02:26:39;;;;;;;10.70;2.70;;;12.80;99.90;;;;;;5132511;27;20034;-53
2023/07/25 02:29:05;;;;;;;12.02;2.75;;;12.60;99.90;;;;;;5132694;27;20055;-53
2023/07/25 02:31:30;;;;;;;12.52;2.50;;;12.70;99.90;;;;;;5133762;27;20074;-54
2023/07/25 02:33:56;;;;;;;14.35;3.72;;;12.60;99.90;;;;;;5133217;27;20073;-52
2023/07/25 02:36:22;;;;;;;9.25;2.50;;;12.80;99.90;;;;;;5132879;27;20918;-54
2023/07/25 02:38:48;;;;;;;8.32;3.55;;;12.80;99.90;;;;;;5131708;27;20153;-54
2023/07/25 02:41:13;;;;;;;10.90;2.97;;;12.90;99.90;;;;;;5114387;27;20833;-54
2023/07/25 02:43:39;;;;;;;10.77;2.63;;;12.80;99.90;;;;;;5132730;27;20027;-52
2023/07/25 02:46:05;;;;;;;8.20;3.10;;;12.90;99.90;;;;;;5132947;27;20501;-54
2023/07/25 02:48:30;;;;;;;9.10;2.88;;;12.80;99.90;;;;;;5132957;27;20031;-55
2023/07/25 02:50:56;;;;;;;9.85;2.67;;;13.00;99.90;;;;;;5131766;27;20038;-54
2023/07/25 02:53:22;;;;;;;10.75;3.00;;;13.00;99.90;;;;;;5131893;27;20065;-54
2023/07/25 02:55:48;;;;;;;10.35;2.67;;;13.10;99.90;;;;;;5132673;27;20310;-53
2023/07/25 02:58:14;;;;;;;12.00;2.80;;;13.00;99.90;;;;;;5099413;27;20282;-52
2023/07/25 03:00:40;;;;;;;10.00;2.33;;;13.00;99.90;;;;;;5111916;27;20206;-54
2023/07/25 03:03:05;;;;;;;27.80;4.40;;;13.10;99.90;;;;;;5131422;27;20037;-55
2023/07/25 03:05:31;;;;;;;10.85;2.63;;;13.40;99.90;;;;;;5133780;27;20042;-53
2023/07/25 03:07:57;;;;;;;8.88;2.20;;;13.10;99.90;;;;;;5131561;27;20819;-53
2023/07/25 03:10:23;;;;;;;19.27;3.10;;;13.20;99.90;;;;;;5131896;27;20042;-54
2023/07/25 03:12:48;;;;;;;9.90;3.20;;;13.20;99.90;;;;;;5133038;27;20043;-55
2023/07/25 03:15:14;;;;;;;8.60;2.72;;;12.90;99.90;;;;;;5132673;27;20705;-53
2023/07/25 03:17:40;;;;;;;14.68;2.67;;;12.90;99.90;;;;;;5133436;27;20043;-54
2023/07/25 03:20:07;;;;;;;9.52;2.80;;;13.00;99.90;;;;;;5131052;27;20039;-55
2023/07/25 03:22:32;;;;;;;12.93;3.38;;;12.90;99.90;;;;;;5132907;27;20041;-54
2023/07/25 03:24:58;;;;;;;7.95;2.60;;;12.80;99.90;;;;;;5133217;27;20046;-51
2023/07/25 03:27:25;;;;;;;11.55;2.33;;;12.80;99.90;;;;;;5131607;27;20038;-54
2023/07/25 03:29:50;;;;;;;10.30;2.70;;;12.90;99.90;;;;;;5131998;27;20039;-54
2023/07/25 03:32:16;;;;;;;11.00;2.47;;;13.00;99.90;;;;;;5131017;27;20033;-53
2023/07/25 03:34:42;;;;;;;9.45;2.20;;;12.80;99.90;;;;;;5133623;27;21389;-53
2023/07/25 03:37:08;;;;;;;7.18;2.28;;;12.80;99.90;;;;;;5132915;27;20043;-54
2023/07/25 03:39:34;;;;;;;12.43;2.33;;;12.80;99.90;;;;;;5132021;27;20498;-55
2023/07/25 03:42:00;;;;;;;13.65;3.85;;;12.60;99.90;;;;;;5111835;27;20708;-54
2023/07/25 03:44:25;;;;;;;14.10;2.50;;;12.70;99.90;;;;;;5130079;27;20030;-54
2023/07/25 03:46:51;;;;;;;9.68;2.30;;;12.70;99.90;;;;;;5131193;27;20036;-54
2023/07/25 03:49:17;;;;;;;8.00;1.85;;;12.80;99.90;;;;;;5129655;27;20129;-53
2023/07/25 03:51:43;;;;;;;11.10;2.10;;;12.80;99.90;;;;;;5130975;27;20205;-54
2023/07/25 03:54:08;;;;;;;6.93;1.98;;;12.70;99.90;;;;;;5131901;27;20043;-54
2023/07/25 03:56:35;;;;;;;7.18;2.00;;;12.80;99.90;;;;;;5130750;27;20059;-54
2023/07/25 03:59:00;;;;;;;9.88;1.80;;;12.60;99.90;;;;;;5129993;27;20042;-55
2023/07/25 04:01:27;;;;;;;12.48;2.33;;;12.60;99.90;;;;;;5129730;27;20057;-53
2023/07/25 04:03:53;;;;;;;6.80;1.83;;;12.70;99.90;;;;;;5133671;27;20045;-54
2023/07/25 04:06:19;;;;;;;11.68;1.98;;;12.60;99.90;;;;;;5131311;27;20038;-54
2023/07/25 04:08:45;;;;;;;12.13;2.13;;;12.50;99.90;;;;;;5130692;27;20031;-54
2023/07/25 04:11:12;;;;;;;14.43;2.53;;;12.50;99.90;;;;;;5130399;27;20038;-54
2023/07/25 04:13:39;;;;;;;11.25;2.20;;;12.30;99.90;;;;;;5112309;27;20053;-54
2023/07/25 04:16:05;;;;;;;10.32;2.00;;;12.40;99.90;;;;;;5129790;27;20031;-54
2023/07/25 04:18:31;;;;;;;10.52;2.22;;;12.40;99.90;;;;;;5129470;27;20519;-54
2023/07/25 04:20:57;;;;;;;9.52;2.80;;;12.50;99.90;;;;;;5131732;27;20713;-54
2023/07/25 04:23:23;;;;;;;9.93;2.03;;;12.40;99.90;;;;;;5117456;27;20106;-54
2023/07/25 04:25:49;;;;;;;10.05;1.98;;;12.40;99.90;;;;;;5134408;27;20083;-53
2023/07/25 04:28:15;;;;;;;12.60;2.25;;;12.40;99.90;;;;;;5135128;27;20071;-54
2023/07/25 04:30:42;;;;;;;5.90;1.60;;;12.40;99.90;;;;;;5136161;27;20062;-55
2023/07/25 04:33:07;;;;;;;11.68;1.98;;;12.40;99.90;;;;;;5135614;27;20039;-53
2023/07/25 04:35:33;;;;;;;13.70;2.22;;;12.30;99.90;;;;;;5136349;27;20037;-52
2023/07/25 04:37:59;;;;;;;11.45;2.30;;;12.50;99.90;;;;;;5133700;27;20042;-54
2023/07/25 04:40:25;;;;;;;10.10;1.90;;;12.60;99.90;;;;;;5136505;27;20047;-50
2023/07/25 04:42:51;;;;;;;13.20;2.10;;;12.70;99.90;;;;;;5135308;27;20760;-52
2023/07/25 04:45:17;;;;;;;6.15;2.05;;;12.60;99.90;;;;;;5133799;27;20037;-54
2023/07/25 04:47:43;;;;;;;8.02;2.40;;;12.70;99.90;;;;;;5134750;27;20043;-54
2023/07/25 04:50:09;;;;;;;8.85;2.13;;;12.70;99.90;;;;;;5115973;27;20054;-55
2023/07/25 04:52:35;;;;;;;12.32;2.53;;;12.60;99.90;;;;;;5135420;27;20077;-53
2023/07/25 04:55:01;;;;;;;10.02;2.42;;;12.70;99.90;;;;;;5133549;27;20184;-53
2023/07/25 04:57:27;;;;;;;13.85;2.20;;;12.90;99.90;;;;;;5133777;27;20050;-54
2023/07/25 04:59:53;;;;;;;11.45;2.22;;;13.00;99.90;;;;;;5134132;27;20601;-53
2023/07/25 05:02:22;;;;;;;8.10;1.90;;;12.80;99.90;;;;;;5136166;27;20038;-55
2023/07/25 05:04:48;;;;;;;11.50;2.85;;;12.80;99.90;;;;;;5136449;27;20350;-54
2023/07/25 05:07:14;;;;;;;8.77;2.08;;;13.00;99.90;;;;;;5134869;27;20027;-52
2023/07/25 05:09:41;;;;;;;8.13;1.92;;;13.00;99.90;;;;;;5115965;27;20066;-55
2023/07/25 05:12:11;;;;;;;8.52;2.03;;;13.10;99.90;;;;;;5135080;27;20047;-54
2023/07/25 05:14:37;;;;;;;9.52;2.20;;;13.10;99.90;;;;;;5134584;27;20034;-53
2023/07/25 05:17:03;;;;;;;8.25;2.60;;;13.10;99.90;;;;;;5134271;27;20544;-53
2023/07/25 05:19:29;;;;;;;10.88;1.95;;;13.20;99.90;;;;;;5133153;27;20554;-54
2023/07/25 05:21:54;;;;;;;9.45;2.28;;;13.40;99.90;;;;;;5133010;27;20057;-54
2023/07/25 05:24:20;;;;;;;7.38;1.70;;;13.40;99.90;;;;;;5099833;27;20446;-53
2023/07/25 05:26:46;;;;;;;11.52;1.92;;;14.50;99.90;;;;;;5134821;27;20572;-52
2023/07/25 05:29:12;;;;;;;9.27;1.77;;;13.70;99.90;;;;;;5133805;27;20039;-54
2023/07/25 05:31:37;;;;;;;8.30;1.88;;;13.80;99.90;;;;;;5133375;27;20086;-54
2023/07/25 05:34:03;;;;;;;9.63;1.80;;;13.60;99.90;;;;;;5132684;27;20146;-55
2023/07/25 05:36:29;;;;;;;9.55;1.95;;;13.60;99.90;;;;;;5134200;27;20035;-54
2023/07/25 05:38:54;;;;;;;10.43;1.92;;;13.60;99.90;;;;;;5135804;27;20497;-53
2023/07/25 05:41:20;;;;;;;13.45;1.90;;;13.30;99.90;;;;;;5135114;27;20054;-53
2023/07/25 05:43:46;;;;;;;9.93;1.98;;;13.40;99.90;;;;;;5134346;27;20038;-52
2023/07/25 05:46:13;;;;;;;9.82;1.80;;;13.60;99.90;;;;;;5134531;27;20058;-52
2023/07/25 05:48:39;;;;;;;8.20;1.95;;;13.40;99.90;;;;;;5133081;27;20050;-53
2023/07/25 05:51:05;;;;;;;9.88;1.75;;;13.60;99.90;;;;;;5134872;27;20049;-54
2023/07/25 05:53:31;;;;;;;6.82;1.48;;;13.70;99.90;;;;;;5116042;27;20031;-54
2023/07/25 05:55:57;;;;;;;6.38;1.45;;;13.80;99.90;;;;;;5134150;27;20050;-53
2023/07/25 05:58:23;;;;;;;6.60;1.55;;;13.90;99.90;;;;;;5134617;27;20676;-53
2023/07/25 06:00:49;;;;;;;7.38;1.60;;;14.00;99.90;;;;;;5135977;27;20511;-53
2023/07/25 06:03:15;;;;;;;9.23;1.45;;;14.10;99.90;;;;;;5134423;27;20038;-52
2023/07/25 06:05:42;;;;;;;8.52;1.35;;;14.30;99.90;;;;;;5136047;27;20042;-52
2023/07/25 06:08:08;;;;;;;8.55;1.70;;;14.40;99.90;;;;;;5112180;27;20039;-53
2023/07/25 06:10:35;;;;;;;11.20;1.52;;;14.40;99.90;;;;;;5133980;27;20037;-54
2023/07/25 06:13:03;;;;;;;11.55;1.45;;;14.70;99.90;;;;;;5134852;27;20035;-52
2023/07/25 06:15:29;;;;;;;10.32;1.60;;;14.70;99.90;;;;;;5114970;27;20086;-53
2023/07/25 06:17:55;;;;;;;7.80;1.25;;;14.90;99.90;;;;;;5134441;27;20582;-52
2023/07/25 06:20:21;;;;;;;8.80;1.20;;;15.10;99.90;;;;;;5133624;27;20045;-53
2023/07/25 06:22:47;;;;;;;9.40;1.67;;;15.20;99.90;;;;;;5134391;27;20099;-54
2023/07/25 06:25:15;;;;;;;6.50;1.45;;;15.30;99.90;;;;;;5133577;27;20133;-52
2023/07/25 06:27:41;;;;;;;6.13;1.00;;;15.50;99.90;;;;;;5132497;27;20171;-52
2023/07/25 06:30:07;;;;;;;7.05;1.45;;;15.60;99.90;;;;;;5132307;27;20031;-52
2023/07/25 06:32:34;;;;;;;6.05;1.30;;;15.70;99.90;;;;;;5132621;27;20038;-52
2023/07/25 06:35:00;;;;;;;5.18;1.20;;;16.00;99.90;;;;;;5133315;27;20050;-54
2023/07/25 06:37:26;;;;;;;5.63;0.95;;;16.00;99.90;;;;;;5113481;27;20045;-54
2023/07/25 06:39:51;;;;;;;7.40;1.10;;;16.10;99.90;;;;;;5131206;27;20035;-51
2023/07/25 06:42:17;;;;;;;7.47;1.40;;;16.40;99.90;;;;;;5098243;27;20049;-50
2023/07/25 06:44:43;;;;;;;4.38;0.77;;;16.40;99.90;;;;;;5132554;27;20075;-53
2023/07/25 06:47:09;;;;;;;5.53;0.88;;;16.70;99.90;;;;;;5131326;27;20046;-51
2023/07/25 06:49:34;;;;;;;11.07;1.30;;;16.60;99.90;;;;;;5130202;27;20233;-52
2023/07/25 06:52:00;;;;;;;5.75;1.15;;;16.60;99.90;;;;;;5132609;27;20049;-51
2023/07/25 06:54:26;;;;;;;3.33;1.00;;;16.60;99.90;;;;;;5131437;27;20396;-50
2023/07/25 06:56:52;;;;;;;6.97;0.90;;;16.80;99.90;;;;;;5130823;27;20047;-54
2023/07/25 06:59:18;;;;;;;5.53;0.75;;;16.80;99.90;;;;;;5131695;27;20046;-52
2023/07/25 07:01:44;;;;;;;7.95;1.17;;;17.60;99.90;;;;;;5131702;27;20031;-51
2023/07/25 07:04:09;;;;;;;4.82;1.00;;;18.70;99.90;;;;;;5131178;27;20233;-50
2023/07/25 07:06:35;;;;;;;5.63;0.82;;;19.90;99.90;;;;;;5132869;27;20105;-54
2023/07/25 07:09:01;;;;;;;12.07;0.98;;;21.10;99.90;;;;;;5130061;27;20437;-54
2023/07/25 07:11:27;;;;;;;5.65;0.88;;;21.90;99.90;;;;;;5128746;27;20069;-53
2023/07/25 07:13:52;;;;;;;4.40;1.00;;;22.90;99.90;;;;;;5128960;27;20125;-55
2023/07/25 07:16:18;;;;;;;6.03;1.15;;;23.50;99.90;;;;;;5130631;27;20050;-54
2023/07/25 07:18:45;;;;;;;4.30;0.88;;;23.80;99.90;;;;;;5129681;27;20281;-54
2023/07/25 07:21:11;;;;;;;3.28;0.80;;;24.50;99.90;;;;;;5130293;27;20039;-55
2023/07/25 07:23:36;;;;;;;6.18;1.15;;;25.20;99.90;;;;;;5131249;27;20506;-53
2023/07/25 07:26:02;;;;;;;4.65;0.68;;;25.50;99.90;;;;;;5133213;27;20394;-55
2023/07/25 07:28:29;;;;;;;6.80;0.98;;;25.00;99.90;;;;;;5133087;27;20039;-54
2023/07/25 07:30:55;;;;;;;4.60;0.88;;;24.80;99.90;;;;;;5132254;27;20074;-52
2023/07/25 07:33:21;;;;;;;4.57;0.93;;;26.80;99.90;;;;;;5132546;27;20211;-55
2023/07/25 07:35:47;;;;;;;6.50;0.80;;;25.10;99.90;;;;;;5134875;27;20034;-55
2023/07/25 07:38:12;;;;;;;6.10;0.88;;;24.00;99.90;;;;;;5133193;27;20058;-53
2023/07/25 07:40:38;;;;;;;4.15;0.65;;;24.60;99.90;;;;;;5132968;27;20585;-53
2023/07/25 07:43:04;;;;;;;3.40;0.80;;;24.90;99.90;;;;;;5131655;27;20085;-55
2023/07/25 07:45:33;;;;;;;3.75;0.68;;;25.40;99.90;;;;;;5133277;27;20035;-55
2023/07/25 07:48:00;;;;;;;3.45;0.82;;;25.50;99.90;;;;;;5132173;27;20043;-54
2023/07/25 07:50:28;;;;;;;5.70;1.02;;;25.70;99.90;;;;;;5130889;27;20406;-54
2023/07/25 07:52:54;;;;;;;7.20;1.50;;;25.80;99.90;;;;;;5128951;27;20567;-55
2023/07/25 07:55:20;;;;;;;5.60;1.40;;;25.50;99.90;;;;;;5130341;27;20540;-53
2023/07/25 07:57:46;;;;;;;6.10;1.35;;;25.50;99.90;;;;;;5131247;27;20083;-54
2023/07/25 08:00:14;;;;;;;3.95;0.80;;;25.50;99.90;;;;;;5113801;27;20141;-55
2023/07/25 08:02:44;;;;;;;6.15;1.27;;;25.70;99.90;;;;;;5130909;27;20407;-55
2023/07/25 08:05:12;;;;;;;5.53;1.02;;;25.80;99.90;;;;;;5131417;27;20164;-54
2023/07/25 08:07:38;;;;;;;10.77;2.10;;;26.30;99.90;;;;;;5111464;27;20042;-55
2023/07/25 08:10:04;;;;;;;5.13;0.88;;;26.40;99.90;;;;;;5131235;27;20043;-54
2023/07/25 08:12:30;;;;;;;7.22;1.25;;;26.00;99.90;;;;;;5130930;27;20039;-55
2023/07/25 08:14:56;;;;;;;6.82;1.48;;;25.50;99.90;;;;;;5130120;27;20058;-54
2023/07/25 08:17:22;;;;;;;5.13;1.10;;;24.90;99.90;;;;;;5130210;27;20066;-54
2023/07/25 08:19:48;;;;;;;5.40;0.90;;;24.00;99.90;;;;;;5131049;27;20076;-54
2023/07/25 08:22:14;;;;;;;4.95;1.17;;;23.00;99.90;;;;;;5130352;27;20135;-54
2023/07/25 08:24:40;;;;;;;5.72;0.73;;;22.10;99.90;;;;;;5111806;27;20114;-54
2023/07/25 08:27:07;;;;;;;2.58;0.80;;;21.60;99.90;;;;;;5131014;27;20027;-53
2023/07/25 08:29:33;;;;;;;4.78;1.23;;;21.50;99.90;;;;;;5131571;27;20035;-53
2023/07/25 08:31:58;;;;;;;3.85;1.00;;;21.30;99.90;;;;;;5130027;27;20525;-52
2023/07/25 08:34:24;;;;;;;3.90;0.70;;;21.10;99.90;;;;;;5131612;27;20043;-53
2023/07/25 08:36:50;;;;;;;5.22;1.00;;;21.80;99.90;;;;;;5134578;27;20095;-53
2023/07/25 08:39:15;;;;;;;4.72;1.05;;;22.10;99.90;;;;;;5132109;27;20059;-53
2023/07/25 08:41:50;;;;;;;3.72;0.55;;;23.00;99.90;;;;;;5130213;27;20074;-54
2023/07/25 08:44:19;;;;;;;4.32;0.70;;;23.40;99.90;;;;;;5129841;27;20059;-53
2023/07/25 08:46:45;;;;;;;5.20;1.38;;;23.20;99.90;;;;;;5130730;27;20031;-53
2023/07/25 08:49:16;;;;;;;5.38;1.23;;;22.70;99.90;;;;;;5130762;27;20223;-53
2023/07/25 08:51:43;;;;;;;3.13;0.70;;;22.00;99.90;;;;;;5130731;27;20168;-51
2023/07/25 08:54:31;;;;;;;3.78;1.13;;;21.30;99.90;;;;;;5131669;27;20077;-53
2023/07/25 08:56:58;;;;;;;3.83;0.60;;;21.00;99.90;;;;;;5110063;27;20137;-52
2023/07/25 08:59:26;;;;;;;5.82;1.23;;;20.70;99.90;;;;;;5128793;27;20259;-51
2023/07/25 09:01:53;;;;;;;8.38;1.27;;;20.40;99.90;;;;;;5129530;27;20491;-52
2023/07/25 09:04:24;;;;;;;8.40;1.23;;;20.20;99.90;;;;;;5131865;27;20574;-52
2023/07/25 09:06:51;;;;;;;1.48;0.45;;;20.10;99.90;;;;;;5110512;27;20065;-52
2023/07/25 09:09:18;;;;;;;11.45;1.83;;;20.00;99.90;;;;;;5116105;27;20206;-53
2023/07/25 09:11:44;;;;;;;12.50;2.88;;;19.50;99.90;;;;;;5135387;27;20042;-51
2023/07/25 09:14:13;;;;;;;6.72;1.65;;;19.80;99.90;;;;;;5133076;27;20058;-50
2023/07/25 09:16:39;;;;;;;7.15;1.20;;;20.00;99.90;;;;;;5134502;27;20043;-53
2023/07/25 09:19:05;;;;;;;10.73;1.83;;;19.70;99.90;;;;;;5131938;27;20042;-53
2023/07/25 09:21:31;;;;;;;6.45;1.15;;;19.10;99.90;;;;;;5134495;27;20419;-56
2023/07/25 09:23:59;;;;;;;6.20;1.10;;;18.70;99.90;;;;;;5113514;27;20046;-56
2023/07/25 09:26:28;;;;;;;5.65;1.00;;;18.80;99.90;;;;;;5132967;27;20071;-58
2023/07/25 09:28:57;;;;;;;6.25;1.45;;;19.30;99.90;;;;;;5132204;27;20043;-57
2023/07/25 09:31:24;;;;;;;7.13;1.35;;;19.50;99.90;;;;;;5132920;27;20113;-56
2023/07/25 09:33:51;;;;;;;7.38;1.52;;;19.50;99.90;;;;;;5114848;27;20042;-57
2023/07/25 09:36:18;;;;;;;6.38;1.10;;;19.10;99.90;;;;;;5134843;27;20233;-57
2023/07/25 09:39:01;;;;;;;8.90;1.90;;;19.00;99.90;;;;;;5132494;27;20042;-56
2023/07/25 09:41:27;;;;;;;9.77;1.65;;;18.60;99.90;;;;;;5133068;27;20122;-56
2023/07/25 09:43:53;;;;;;;3.95;0.90;;;18.50;99.90;;;;;;5133648;27;20507;-56
2023/07/25 09:46:19;;;;;;;5.38;1.10;;;18.30;99.90;;;;;;5132430;27;20066;-57
2023/07/25 09:48:51;;;;;;;5.78;1.05;;;18.70;99.90;;;;;;5113720;27;20508;-57
2023/07/25 09:51:17;;;;;;;5.50;1.23;;;18.90;99.90;;;;;;5112359;27;20440;-60
2023/07/25 09:53:44;;;;;;;8.73;1.10;;;19.60;99.90;;;;;;5115513;27;20047;-56
2023/07/25 09:56:11;;;;;;;5.95;1.02;;;19.70;99.90;;;;;;5134005;27;20494;-54
2023/07/25 09:58:37;;;;;;;5.78;1.02;;;19.80;99.90;;;;;;5131830;27;20042;-55
2023/07/25 10:01:03;;;;;;;7.95;1.10;;;19.80;99.90;;;;;;5133604;27;20074;-54
2023/07/25 10:03:30;;;;;;;5.63;1.30;;;20.10;99.90;;;;;;5132674;27;20178;-54
2023/07/25 10:05:58;;;;;;;13.15;1.80;;;19.70;99.90;;;;;;5133537;27;20043;-52
2023/07/25 10:08:26;;;;;;;9.00;1.38;;;19.40;99.90;;;;;;5132989;27;20396;-53
2023/07/25 10:10:55;;;;;;;7.32;1.25;;;18.90;99.90;;;;;;5133443;27;20038;-50
2023/07/25 10:13:21;;;;;;;2.70;0.88;;;19.00;99.90;;;;;;5133547;27;20049;-53
2023/07/25 10:15:49;;;;;;;4.57;1.33;;;19.30;99.90;;;;;;5132994;27;20711;-55
2023/07/25 10:18:26;;;;;;;7.78;0.93;;;19.60;99.90;;;;;;5131918;27;20053;-54
2023/07/25 10:20:53;;;;;;;6.05;0.98;;;19.90;99.90;;;;;;5131446;27;20046;-57
2023/07/25 10:23:28;;;;;;;7.63;0.98;;;20.30;99.90;;;;;;5132620;27;20257;-54
2023/07/25 10:25:54;;;;;;;3.75;0.80;;;20.40;99.90;;;;;;5133865;27;20858;-55
2023/07/25 10:28:22;;;;;;;7.80;0.90;;;20.20;99.90;;;;;;5132049;27;20046;-54
2023/07/25 10:30:48;;;;;;;8.05;0.77;;;19.70;99.90;;;;;;5131843;27;20043;-54
2023/07/25 10:33:16;;;;;;;4.30;0.70;;;19.50;99.90;;;;;;5130954;27;20045;-54
2023/07/25 10:35:49;;;;;;;6.20;1.25;;;19.40;99.90;;;;;;5130425;27;20389;-55
2023/07/25 10:38:37;;;;;;;3.90;0.77;;;19.30;99.90;;;;;;5132720;27;20027;-54
2023/07/25 10:41:08;;;;;;;4.43;0.90;;;19.00;99.90;;;;;;5131354;27;20357;-55
2023/07/25 10:43:48;;;;;;;4.57;0.80;;;19.20;99.90;;;;;;5132133;27;20284;-55
2023/07/25 10:46:16;;;;;;;6.60;1.00;;;18.90;99.90;;;;;;5131982;27;20077;-55
2023/07/25 10:48:55;;;;;;;7.88;1.13;;;19.20;99.90;;;;;;5133667;27;20039;-55
2023/07/25 10:51:21;;;;;;;4.15;1.20;;;19.50;99.90;;;;;;5132651;27;20606;-56
2023/07/25 10:54:10;;;;;;;4.22;0.85;;;19.60;99.90;;;;;;5113138;27;20045;-55
2023/07/25 10:56:37;;;;;;;3.97;1.17;;;19.80;99.90;;;;;;5131921;27;20054;-55
2023/07/25 10:59:04;;;;;;;8.43;1.85;;;19.50;99.90;;;;;;5131462;27;20039;-54
2023/07/25 11:01:44;;;;;;;7.07;1.00;;;19.30;99.90;;;;;;5133651;27;20614;-56
2023/07/25 11:04:28;;;;;;;4.25;0.80;;;19.50;99.90;;;;;;5131679;27;20515;-56
2023/07/25 11:06:56;;;;;;;4.63;0.98;;;19.50;99.90;;;;;;5115903;27;20510;-56
2023/07/25 11:09:23;;;;;;;9.07;0.82;;;19.40;99.90;;;;;;5133605;27;20449;-53
2023/07/25 11:11:51;;;;;;;4.50;1.05;;;19.40;99.90;;;;;;5133071;27;20042;-49
2023/07/25 11:14:18;;;;;;;7.18;1.08;;;19.60;99.90;;;;;;5131289;27;20062;-53
2023/07/25 11:16:46;;;;;;;4.90;0.90;;;19.40;99.90;;;;;;5134077;27;20129;-53
2023/07/25 11:19:14;;;;;;;4.38;0.80;;;19.00;99.90;;;;;;5132481;27;20693;-53
2023/07/25 11:21:41;;;;;;;6.28;0.88;;;18.70;99.90;;;;;;5133116;27;20556;-50
2023/07/25 11:24:08;;;;;;;4.30;0.80;;;18.50;99.90;;;;;;5134267;27;20600;-52
2023/07/25 11:26:37;;;;;;;3.05;0.70;;;18.50;99.90;;;;;;5135830;27;20111;-53
2023/07/25 11:29:07;;;;;;;2.85;0.70;;;18.70;99.90;;;;;;5135071;27;20039;-50
2023/07/25 11:31:36;;;;;;;4.55;1.10;;;19.30;99.90;;;;;;5135346;27;20266;-49
2023/07/25 11:34:16;;;;;;;5.10;0.70;;;19.70;99.90;;;;;;5134620;27;20046;-49
2023/07/25 11:36:43;;;;;;;4.63;1.10;;;19.20;99.90;;;;;;5135144;27;20058;-51
2023/07/25 11:39:10;;;;;;;3.78;0.80;;;19.30;99.90;;;;;;5135289;27;20046;-49
2023/07/25 11:41:37;;;;;;;3.65;0.98;;;18.90;99.90;;;;;;5134350;27;20073;-52
2023/07/25 11:44:12;;;;;;;4.60;0.77;;;18.70;99.90;;;;;;5134264;27;20039;-54
2023/07/25 11:46:40;;;;;;;6.00;0.88;;;18.20;99.90;;;;;;5134509;27;20045;-48
2023/07/25 11:49:08;;;;;;;4.32;0.60;;;18.30;99.90;;;;;;5133162;27;20039;-48
2023/07/25 11:51:34;;;;;;;4.72;0.70;;;18.30;99.90;;;;;;5132826;27;21145;-48
2023/07/25 11:54:00;;;;;;;9.55;1.00;;;18.10;99.90;;;;;;5133952;27;20652;-51
2023/07/25 11:56:26;;;;;;;6.05;1.10;;;18.10;99.90;;;;;;5133071;27;20054;-52
2023/07/25 11:58:52;;;;;;;4.07;0.80;;;18.00;99.90;;;;;;5133611;27;20066;-50
2023/07/25 12:01:18;;;;;;;5.95;1.20;;;18.10;99.90;;;;;;5132381;27;20066;-50
2023/07/25 12:03:48;;;;;;;4.28;0.90;;;18.50;99.90;;;;;;5134135;27;20284;-50
2023/07/25 12:06:15;;;;;;;8.05;1.30;;;18.50;99.90;;;;;;5133121;27;20054;-53
2023/07/25 12:08:44;;;;;;;3.55;0.93;;;18.90;99.90;;;;;;5134681;27;20042;-51
2023/07/25 12:11:12;;;;;;;5.82;0.70;;;19.50;99.90;;;;;;5133339;27;20131;-47
2023/07/25 12:13:52;;;;;;;5.00;0.82;;;19.90;99.90;;;;;;5133109;27;20054;-53
2023/07/25 12:16:37;;;;;;;5.20;1.45;;;19.60;99.90;;;;;;5133348;27;20038;-49
2023/07/25 12:19:10;;;;;;;6.15;1.10;;;19.40;99.90;;;;;;5113541;27;20205;-47
2023/07/25 12:21:38;;;;;;;5.07;1.05;;;19.20;99.90;;;;;;5133281;27;20125;-49
2023/07/25 12:24:08;;;;;;;3.53;0.80;;;18.70;99.90;;;;;;5131733;27;20253;-52
2023/07/25 12:26:54;;;;;;;7.40;1.27;;;19.10;99.90;;;;;;5133345;27;20041;-51
2023/07/25 12:29:22;;;;;;;5.57;0.90;;;18.80;99.90;;;;;;5132854;27;20070;-52
2023/07/25 12:31:48;;;;;;;6.13;1.45;;;19.10;99.90;;;;;;5132894;27;20062;-51
2023/07/25 12:34:23;;;;;;;6.15;1.52;;;18.90;99.90;;;;;;5132596;27;20219;-51
2023/07/25 12:36:50;;;;;;;8.05;1.33;;;19.00;99.90;;;;;;5133224;27;20069;-51
2023/07/25 12:39:16;;;;;;;6.25;1.02;;;19.00;99.90;;;;;;5133721;27;20050;-53
2023/07/25 12:41:43;;;;;;;5.53;1.23;;;19.00;99.90;;;;;;5133258;27;20035;-50